Homer, AK (99603)

12:02 AM AKDT on June 24, 2017 (GMT -0800)
Beluga Circle | | Change Station

Elev 75 ft 59.65 °N, 151.51 °W | Updated 24 seconds ago

Clear
Clear
50.5 °F
Feels Like 50.5 °F
N
0.0
Wind Variable Wind from South

Today
High -- | Low -- °F
--% Chance of Precip.
Yesterday
High -- | Low -- °F
Precip. -- in
Pressure 30.26 in
Visibility 10.0 miles
Clouds Clear
Dew Point 42 °F
Humidity 74%
Rainfall 0.00 in
Snow Depth Not available.
4:47 AM 11:30 PM
New Moon, 0% visible
METAR PAHO 240753Z AUTO 00000KT 10SM CLR 11/06 A3025 RMK AO2 SLP245 T01060061 TSNO
Pressure 30.26 in
Visibility 10.0 miles
Clouds Clear
Dew Point 42 °F
Humidity 74%
Rainfall 0.00 in
Snow Depth Not available.
4:47 AM 11:30 PM
New Moon, 0% visible
METAR PAHO 240753Z AUTO 00000KT 10SM CLR 11/06 A3025 RMK AO2 SLP245 T01060061 TSNO

Get Severe Weather Alerts

Thanks for signing up!

Be on the lookout for a verification email in your inbox.

You'll start receiving the daily forecast at 6 AM.

×

10-Day Weather Forecast

Almanac

Astronomy

Jun. 24, 2017 Rise Set
Actual Time
Civil Twilight
Nautical Twilight
Astronomical Twilight
Moon
Length of Visible Light
Length of Day
Tomorrow will be .
, % of the Moon is Illuminated

Today's Extremes

State Highs State Lows

Community

WunderPhotos

Category 6

Welcome to Category 6. This is the collective home for Weather Underground's featured writeups by Dr. Jeff Masters (right), Bob Henson (left), Chris Burt, and other regular contributors.

Nearby

Air Quality

  Air Quality AQ Index Pollutant
Not available.

Snow Depth

Station Depth Elevation

Earthquake Activity

City Distance Mag. Time & Date
Minimum magnitude displayed is 2.5.

Coastal Water Temperatures

Place Temperature

Stations

Nearby Weather Stations

Station Location Temp. Windchill Dew Point Humidity Wind Precip. Elev Updated Type
                   

Watches & Warnings

There are currently no watches in effect.